PWSweather.com
Personal Weather Stations
Station Observations
BRISTOL
HorfieldFilton, BristolGB BS7

HorfieldFiltonBristolGB BS7

Lat: 51.5, Lon: -2.576

Elevation: 272

Station Type: Davis VP2

http://www.martynhicks.co.uk/weather/data.php

Latest ConditionsUpdated 3:30:02 PM GMT Friday, Aug 22, 2014
Currently Today's Max Today's Min Today's Average
Temperature 64.1°F17.8°C 66.2°F19.0°C 51.5°F10.8°C 57.6°F14.2°C
Dew Point 48.6°F9.2°C 58.1°F14.5°C 46.0°F7.8°C 50.9°F10.5°C
Winds 5.7 mph WSW9.2 kmh WSW 8.8 mph WNW14.2 kmh WNW - 2.8 mph 4.5 kmh
Wind Gusts 9.0 mph14.5 kmh 15.0 mph24.1 kmh - -
Humidity 57% 95% 50% 80%
Pressure 29.91 in1012.9 mb 29.91 in1012.9 mb 29.82 in1009.8 mb -
Precipitation - 0.07 in1.8 mm - -
Hour Temp Dew Point Humidity Winds Wind Gusts Pressure Precip Precip Rate Daily Precip Total
03:30 PM 64.1°F17.8°C 48.6°F9.2°C 57% 5.7 mph WSW9.2 kmh WSW 9.0 mph14.5 kmh 29.91 in1012.9 mb 0.00 in0.0 mm 0.00 in/hr0.0 mm/hr 0.07 in1.8 mm
03:20 PM 64.4°F18.0°C 48.8°F9.3°C 57% 5.0 mph W8.0 kmh W 8.0 mph12.9 kmh 29.91 in1012.9 mb 0.00 in0.0 mm 0.00 in/hr0.0 mm/hr 0.07 in1.8 mm
03:10 PM 65.4°F18.6°C 48.8°F9.3°C 55% 5.8 mph W9.3 kmh W 15.0 mph24.1 kmh 29.90 in1012.5 mb 0.00 in0.0 mm 0.00 in/hr0.0 mm/hr 0.07 in1.8 mm
03:00 PM 65.8°F18.8°C 48.2°F9.0°C 53% 5.8 mph W9.3 kmh W 12.0 mph19.3 kmh 29.91 in1012.9 mb 0.00 in0.0 mm 0.00 in/hr0.0 mm/hr 0.07 in1.8 mm
02:50 PM 65.2°F18.4°C 48.1°F8.9°C 54% 6.5 mph WSW10.5 kmh WSW 10.0 mph16.1 kmh 29.91 in1012.9 mb 0.00 in0.0 mm 0.00 in/hr0.0 mm/hr 0.07 in1.8 mm
02:40 PM 64.4°F18.0°C 46.9°F8.3°C 53% 4.9 mph WSW7.9 kmh WSW 10.0 mph16.1 kmh 29.90 in1012.5 mb 0.00 in0.0 mm 0.00 in/hr0.0 mm/hr 0.07 in1.8 mm
02:30 PM 65.2°F18.4°C 47.1°F8.4°C 52% 5.6 mph W9.0 kmh W 9.0 mph14.5 kmh 29.90 in1012.5 mb 0.00 in0.0 mm 0.00 in/hr0.0 mm/hr 0.07 in1.8 mm
02:20 PM 65.1°F18.4°C 46.0°F7.8°C 50% 5.6 mph WSW9.0 kmh WSW 10.0 mph16.1 kmh 29.90 in1012.5 mb 0.00 in0.0 mm 0.00 in/hr0.0 mm/hr 0.07 in1.8 mm
02:10 PM 65.0°F18.3°C 46.5°F8.1°C 51% 6.3 mph W10.1 kmh W 10.0 mph16.1 kmh 29.90 in1012.5 mb 0.00 in0.0 mm 0.00 in/hr0.0 mm/hr 0.07 in1.8 mm
02:00 PM 65.4°F18.6°C 47.3°F8.5°C 52% 4.8 mph W7.7 kmh W 12.0 mph19.3 kmh 29.90 in1012.5 mb 0.00 in0.0 mm 0.00 in/hr0.0 mm/hr 0.07 in1.8 mm
01:50 PM 66.2°F19.0°C 47.0°F8.3°C 50% 7.9 mph WSW12.7 kmh WSW 11.0 mph17.7 kmh 29.90 in1012.5 mb 0.00 in0.0 mm 0.00 in/hr0.0 mm/hr 0.07 in1.8 mm
01:40 PM 66.1°F18.9°C 47.5°F8.6°C 51% 6.2 mph W10.0 kmh W 12.0 mph19.3 kmh 29.90 in1012.5 mb 0.00 in0.0 mm 0.00 in/hr0.0 mm/hr 0.07 in1.8 mm
01:30 PM 66.0°F18.9°C 47.9°F8.8°C 52% 4.8 mph W7.7 kmh W 9.0 mph14.5 kmh 29.90 in1012.5 mb 0.00 in0.0 mm 0.00 in/hr0.0 mm/hr 0.07 in1.8 mm
01:20 PM 66.2°F19.0°C 48.5°F9.2°C 53% 6.7 mph W10.8 kmh W 11.0 mph17.7 kmh 29.90 in1012.5 mb 0.00 in0.0 mm 0.00 in/hr0.0 mm/hr 0.07 in1.8 mm
01:10 PM 65.8°F18.8°C 49.2°F9.6°C 55% 3.4 mph W5.5 kmh W 14.0 mph22.5 kmh 29.90 in1012.5 mb 0.00 in0.0 mm 0.00 in/hr0.0 mm/hr 0.07 in1.8 mm
01:00 PM 65.5°F18.6°C 48.4°F9.1°C 54% 8.0 mph W12.9 kmh W 14.0 mph22.5 kmh 29.90 in1012.5 mb 0.00 in0.0 mm 0.00 in/hr0.0 mm/hr 0.07 in1.8 mm
12:50 PM 65.5°F18.6°C 51.7°F10.9°C 61% 5.0 mph W8.0 kmh W 7.0 mph11.3 kmh 29.89 in1012.2 mb 0.00 in0.0 mm 0.00 in/hr0.0 mm/hr 0.07 in1.8 mm
12:40 PM 63.5°F17.5°C 47.5°F8.6°C 56% 7.9 mph NW12.7 kmh NW 11.0 mph17.7 kmh 29.89 in1012.2 mb 0.00 in0.0 mm 0.00 in/hr0.0 mm/hr 0.07 in1.8 mm
12:30 PM 63.4°F17.4°C 48.9°F9.4°C 59% 3.6 mph NW5.8 kmh NW 9.0 mph14.5 kmh 29.90 in1012.5 mb 0.00 in0.0 mm 0.00 in/hr0.0 mm/hr 0.07 in1.8 mm
12:20 PM 63.4°F17.4°C 49.2°F9.6°C 60% 2.9 mph WNW4.7 kmh WNW 8.0 mph12.9 kmh 29.90 in1012.5 mb 0.00 in0.0 mm 0.00 in/hr0.0 mm/hr 0.07 in1.8 mm
12:10 PM 62.7°F17.1°C 48.6°F9.2°C 60% 2.1 mph NW3.4 kmh NW 4.0 mph6.4 kmh 29.89 in1012.2 mb 0.00 in0.0 mm 0.00 in/hr0.0 mm/hr 0.07 in1.8 mm
12:00 PM 62.5°F16.9°C 51.4°F10.8°C 67% 5.4 mph W8.7 kmh W 11.0 mph17.7 kmh 29.89 in1012.2 mb 0.00 in0.0 mm 0.00 in/hr0.0 mm/hr 0.07 in1.8 mm
11:50 AM 61.0°F16.1°C 49.5°F9.7°C 66% 1.7 mph WNW2.7 kmh WNW 10.0 mph16.1 kmh 29.89 in1012.2 mb 0.00 in0.0 mm 0.00 in/hr0.0 mm/hr 0.07 in1.8 mm
11:40 AM 61.0°F16.1°C 48.7°F9.3°C 64% 2.5 mph NW4.0 kmh NW 5.0 mph8.0 kmh 29.89 in1012.2 mb 0.00 in0.0 mm 0.00 in/hr0.0 mm/hr 0.07 in1.8 mm
11:30 AM 63.4°F17.4°C 49.3°F9.6°C 60% 4.0 mph NW6.4 kmh NW 8.0 mph12.9 kmh 29.89 in1012.2 mb 0.00 in0.0 mm 0.00 in/hr0.0 mm/hr 0.07 in1.8 mm
11:20 AM 61.7°F16.5°C 49.8°F9.9°C 65% 1.3 mph NW2.1 kmh NW 2.0 mph3.2 kmh 29.89 in1012.2 mb 0.00 in0.0 mm 0.00 in/hr0.0 mm/hr 0.07 in1.8 mm
11:10 AM 62.7°F17.1°C 51.2°F10.7°C 66% 6.4 mph W10.3 kmh W 13.0 mph20.9 kmh 29.89 in1012.2 mb 0.00 in0.0 mm 0.00 in/hr0.0 mm/hr 0.07 in1.8 mm
11:00 AM 62.6°F17.0°C 53.4°F11.9°C 72% 5.2 mph W8.4 kmh W 7.0 mph11.3 kmh 29.89 in1012.2 mb 0.00 in0.0 mm 0.00 in/hr0.0 mm/hr 0.07 in1.8 mm
10:50 AM 62.4°F16.9°C 51.3°F10.7°C 67% 2.6 mph WNW4.2 kmh WNW 6.0 mph9.7 kmh 29.89 in1012.2 mb 0.00 in0.0 mm 0.00 in/hr0.0 mm/hr 0.07 in1.8 mm
10:40 AM 61.4°F16.3°C 51.2°F10.7°C 69% 1.2 mph NW1.9 kmh NW 3.0 mph4.8 kmh 29.89 in1012.2 mb 0.00 in0.0 mm 0.00 in/hr0.0 mm/hr 0.07 in1.8 mm
10:30 AM 62.0°F16.7°C 52.1°F11.2°C 70% 4.4 mph NW7.1 kmh NW 8.0 mph12.9 kmh 29.89 in1012.2 mb 0.01 in0.3 mm 0.06 in/hr1.5 mm/hr 0.07 in1.8 mm
10:20 AM 63.4°F17.4°C 58.1°F14.5°C 83% 4.0 mph NW6.4 kmh NW 8.0 mph12.9 kmh 29.88 in1011.9 mb 0.00 in0.0 mm 0.00 in/hr0.0 mm/hr 0.06 in1.5 mm
10:10 AM 58.2°F14.6°C 53.1°F11.7°C 83% 5.1 mph W8.2 kmh W 10.0 mph16.1 kmh 29.88 in1011.9 mb 0.00 in0.0 mm 0.00 in/hr0.0 mm/hr 0.06 in1.5 mm
10:00 AM 58.2°F14.6°C 53.1°F11.7°C 83% 8.8 mph WNW14.2 kmh WNW 13.0 mph20.9 kmh 29.88 in1011.9 mb 0.00 in0.0 mm 0.00 in/hr0.0 mm/hr 0.06 in1.5 mm
09:50 AM 58.2°F14.6°C 53.1°F11.7°C 83% 2.4 mph NW3.9 kmh NW 3.0 mph4.8 kmh 29.88 in1011.9 mb 0.00 in0.0 mm 0.00 in/hr0.0 mm/hr 0.06 in1.5 mm
09:40 AM 58.2°F14.6°C 53.1°F11.7°C 83% 1.3 mph W2.1 kmh W 4.0 mph6.4 kmh 29.87 in1011.5 mb 0.00 in0.0 mm 0.00 in/hr0.0 mm/hr 0.06 in1.5 mm
09:30 AM 58.2°F14.6°C 53.1°F11.7°C 83% 3.7 mph NW6.0 kmh NW 8.0 mph12.9 kmh 29.88 in1011.9 mb 0.00 in0.0 mm 0.00 in/hr0.0 mm/hr 0.06 in1.5 mm
09:20 AM 58.2°F14.6°C 53.1°F11.7°C 83% 1.2 mph NW1.9 kmh NW 3.0 mph4.8 kmh 29.88 in1011.9 mb 0.00 in0.0 mm 0.00 in/hr0.0 mm/hr 0.06 in1.5 mm
09:10 AM 58.2°F14.6°C 53.1°F11.7°C 83% 3.4 mph WNW5.5 kmh WNW 6.0 mph9.7 kmh 29.87 in1011.5 mb 0.00 in0.0 mm 0.00 in/hr0.0 mm/hr 0.06 in1.5 mm
09:00 AM 58.2°F14.6°C 53.1°F11.7°C 83% 6.8 mph NW10.9 kmh NW 12.0 mph19.3 kmh 29.87 in1011.5 mb 0.00 in0.0 mm 0.00 in/hr0.0 mm/hr 0.06 in1.5 mm
08:50 AM 58.0°F14.4°C 53.9°F12.2°C 86% 5.0 mph NW8.0 kmh NW 10.0 mph16.1 kmh 29.87 in1011.5 mb 0.00 in0.0 mm 0.00 in/hr0.0 mm/hr 0.06 in1.5 mm
08:40 AM 56.8°F13.8°C 53.9°F12.2°C 90% 2.8 mph WNW4.5 kmh WNW 5.0 mph8.0 kmh 29.87 in1011.5 mb 0.00 in0.0 mm 0.00 in/hr0.0 mm/hr 0.06 in1.5 mm
08:30 AM 56.0°F13.3°C 53.7°F12.1°C 92% 2.3 mph NW3.7 kmh NW 5.0 mph8.0 kmh 29.87 in1011.5 mb 0.00 in0.0 mm 0.00 in/hr0.0 mm/hr 0.06 in1.5 mm
08:20 AM 55.4°F13.0°C 53.7°F12.1°C 94% 1.6 mph WNW2.6 kmh WNW 3.0 mph4.8 kmh 29.86 in1011.2 mb 0.00 in0.0 mm 0.00 in/hr0.0 mm/hr 0.06 in1.5 mm
08:10 AM 54.7°F12.6°C 53.0°F11.7°C 94% 3.6 mph WNW5.8 kmh WNW 5.0 mph8.0 kmh 29.86 in1011.2 mb 0.00 in0.0 mm 0.00 in/hr0.0 mm/hr 0.06 in1.5 mm
08:00 AM 54.0°F12.2°C 52.4°F11.3°C 94% 2.4 mph WNW3.9 kmh WNW 7.0 mph11.3 kmh 29.86 in1011.2 mb 0.00 in0.0 mm 0.00 in/hr0.0 mm/hr 0.06 in1.5 mm
07:50 AM 54.0°F12.2°C 52.3°F11.3°C 94% 2.3 mph WNW3.7 kmh WNW 4.0 mph6.4 kmh 29.86 in1011.2 mb 0.00 in0.0 mm 0.00 in/hr0.0 mm/hr 0.06 in1.5 mm
07:40 AM 54.1°F12.3°C 52.7°F11.5°C 95% 0.7 mph WNW1.1 kmh WNW 1.0 mph1.6 kmh 29.86 in1011.2 mb 0.00 in0.0 mm 0.00 in/hr0.0 mm/hr 0.06 in1.5 mm
07:30 AM 54.0°F12.2°C 52.6°F11.4°C 95% 0.7 mph WNW1.1 kmh WNW 3.0 mph4.8 kmh 29.85 in1010.8 mb 0.00 in0.0 mm 0.00 in/hr0.0 mm/hr 0.06 in1.5 mm
07:20 AM 53.9°F12.2°C 52.5°F11.4°C 95% Calm Calm -- 29.85 in1010.8 mb 0.00 in0.0 mm 0.00 in/hr0.0 mm/hr 0.06 in1.5 mm
07:10 AM 53.7°F12.1°C 52.0°F11.1°C 94% 0.4 mph WNW0.6 kmh WNW 2.0 mph3.2 kmh 29.85 in1010.8 mb 0.00 in0.0 mm 0.00 in/hr0.0 mm/hr 0.06 in1.5 mm
07:00 AM 53.5°F11.9°C 51.8°F11.0°C 94% 0.1 mph WNW0.2 kmh WNW -- 29.85 in1010.8 mb 0.00 in0.0 mm 0.00 in/hr0.0 mm/hr 0.06 in1.5 mm
06:50 AM 53.4°F11.9°C 51.7°F10.9°C 94% 0.2 mph WNW0.3 kmh WNW 1.0 mph1.6 kmh 29.84 in1010.5 mb 0.00 in0.0 mm 0.00 in/hr0.0 mm/hr 0.06 in1.5 mm
06:40 AM 53.2°F11.8°C 51.5°F10.8°C 94% 0.2 mph WNW0.3 kmh WNW -- 29.84 in1010.5 mb 0.00 in0.0 mm 0.00 in/hr0.0 mm/hr 0.06 in1.5 mm
06:30 AM 53.0°F11.7°C 51.3°F10.7°C 94% 0.1 mph WNW0.2 kmh WNW 3.0 mph4.8 kmh 29.84 in1010.5 mb 0.00 in0.0 mm 0.00 in/hr0.0 mm/hr 0.06 in1.5 mm
06:20 AM 52.8°F11.6°C 51.1°F10.6°C 94% 1.2 mph WNW1.9 kmh WNW 3.0 mph4.8 kmh 29.84 in1010.5 mb 0.00 in0.0 mm 0.00 in/hr0.0 mm/hr 0.06 in1.5 mm
06:10 AM 52.5°F11.4°C 50.9°F10.5°C 94% 1.2 mph WNW1.9 kmh WNW 1.0 mph1.6 kmh 29.83 in1010.2 mb 0.00 in0.0 mm 0.00 in/hr0.0 mm/hr 0.06 in1.5 mm
06:00 AM 52.2°F11.2°C 50.5°F10.3°C 94% 0.7 mph WNW1.1 kmh WNW 2.0 mph3.2 kmh 29.83 in1010.2 mb 0.00 in0.0 mm 0.00 in/hr0.0 mm/hr 0.06 in1.5 mm
05:50 AM 51.9°F11.1°C 50.2°F10.1°C 94% 0.6 mph WNW1.0 kmh WNW 2.0 mph3.2 kmh 29.83 in1010.2 mb 0.00 in0.0 mm 0.00 in/hr0.0 mm/hr 0.06 in1.5 mm
05:40 AM 51.6°F10.9°C 49.9°F9.9°C 94% 0.8 mph WNW1.3 kmh WNW 1.0 mph1.6 kmh 29.83 in1010.2 mb 0.00 in0.0 mm 0.00 in/hr0.0 mm/hr 0.06 in1.5 mm
05:30 AM 51.5°F10.8°C 49.5°F9.7°C 93% 0.5 mph WNW0.8 kmh WNW 2.0 mph3.2 kmh 29.83 in1010.2 mb 0.00 in0.0 mm 0.00 in/hr0.0 mm/hr 0.06 in1.5 mm
05:20 AM 51.6°F10.9°C 49.6°F9.8°C 93% Calm Calm -- 29.83 in1010.2 mb 0.00 in0.0 mm 0.00 in/hr0.0 mm/hr 0.06 in1.5 mm
05:10 AM 51.9°F11.1°C 49.9°F9.9°C 93% Calm Calm 1.0 mph1.6 kmh 29.82 in1009.8 mb 0.00 in0.0 mm 0.00 in/hr0.0 mm/hr 0.06 in1.5 mm
05:00 AM 52.3°F11.3°C 50.3°F10.2°C 93% Calm Calm -- 29.83 in1010.2 mb 0.00 in0.0 mm 0.00 in/hr0.0 mm/hr 0.06 in1.5 mm
04:50 AM 52.5°F11.4°C 50.6°F10.3°C 93% Calm Calm -- 29.82 in1009.8 mb 0.00 in0.0 mm 0.00 in/hr0.0 mm/hr 0.06 in1.5 mm
04:40 AM 52.8°F11.6°C 50.8°F10.4°C 93% 0.2 mph WNW0.3 kmh WNW 2.0 mph3.2 kmh 29.82 in1009.8 mb 0.00 in0.0 mm 0.00 in/hr0.0 mm/hr 0.06 in1.5 mm
04:30 AM 53.1°F11.7°C 51.1°F10.6°C 93% 0.4 mph WNW0.6 kmh WNW 2.0 mph3.2 kmh 29.82 in1009.8 mb 0.00 in0.0 mm 0.00 in/hr0.0 mm/hr 0.06 in1.5 mm
04:20 AM 53.3°F11.8°C 51.3°F10.7°C 93% 1.3 mph WNW2.1 kmh WNW 2.0 mph3.2 kmh 29.82 in1009.8 mb 0.00 in0.0 mm 0.00 in/hr0.0 mm/hr 0.06 in1.5 mm
04:10 AM 53.5°F11.9°C 51.6°F10.9°C 93% 0.3 mph WNW0.5 kmh WNW 7.0 mph11.3 kmh 29.82 in1009.8 mb 0.00 in0.0 mm 0.00 in/hr0.0 mm/hr 0.06 in1.5 mm
04:00 AM 53.8°F12.1°C 51.8°F11.0°C 93% 0.1 mph SW0.2 kmh SW 1.0 mph1.6 kmh 29.82 in1009.8 mb 0.00 in0.0 mm 0.00 in/hr0.0 mm/hr 0.06 in1.5 mm
03:50 AM 53.9°F12.2°C 52.0°F11.1°C 93% 0.9 mph SW1.4 kmh SW 3.0 mph4.8 kmh 29.82 in1009.8 mb 0.00 in0.0 mm 0.00 in/hr0.0 mm/hr 0.06 in1.5 mm
03:40 AM 54.1°F12.3°C 52.1°F11.2°C 93% 0.4 mph SW0.6 kmh SW 1.0 mph1.6 kmh 29.82 in1009.8 mb 0.00 in0.0 mm 0.00 in/hr0.0 mm/hr 0.06 in1.5 mm
03:30 AM 54.2°F12.3°C 52.2°F11.2°C 93% 0.3 mph SW0.5 kmh SW 1.0 mph1.6 kmh 29.82 in1009.8 mb 0.00 in0.0 mm 0.00 in/hr0.0 mm/hr 0.06 in1.5 mm
03:20 AM 54.2°F12.3°C 52.2°F11.2°C 93% 0.8 mph SW1.3 kmh SW 2.0 mph3.2 kmh 29.82 in1009.8 mb 0.00 in0.0 mm 0.00 in/hr0.0 mm/hr 0.06 in1.5 mm
03:10 AM 54.1°F12.3°C 52.1°F11.2°C 93% 1.0 mph SW1.6 kmh SW 5.0 mph8.0 kmh 29.82 in1009.8 mb 0.00 in0.0 mm 0.00 in/hr0.0 mm/hr 0.06 in1.5 mm
03:00 AM 54.0°F12.2°C 52.0°F11.1°C 93% 0.4 mph SW0.6 kmh SW 2.0 mph3.2 kmh 29.82 in1009.8 mb 0.00 in0.0 mm 0.00 in/hr0.0 mm/hr 0.06 in1.5 mm
02:50 AM 53.9°F12.2°C 51.9°F11.1°C 93% 0.2 mph SW0.3 kmh SW 4.0 mph6.4 kmh 29.82 in1009.8 mb 0.00 in0.0 mm 0.00 in/hr0.0 mm/hr 0.06 in1.5 mm
02:40 AM 53.9°F12.2°C 51.9°F11.1°C 93% 0.3 mph SW0.5 kmh SW 2.0 mph3.2 kmh 29.82 in1009.8 mb 0.00 in0.0 mm 0.00 in/hr0.0 mm/hr 0.06 in1.5 mm
02:30 AM 53.9°F12.2°C 51.9°F11.1°C 93% 1.0 mph SW1.6 kmh SW 1.0 mph1.6 kmh 29.83 in1010.2 mb 0.00 in0.0 mm 0.00 in/hr0.0 mm/hr 0.06 in1.5 mm
02:20 AM 53.8°F12.1°C 51.8°F11.0°C 93% 1.3 mph SW2.1 kmh SW 4.0 mph6.4 kmh 29.83 in1010.2 mb 0.00 in0.0 mm 0.00 in/hr0.0 mm/hr 0.06 in1.5 mm
02:10 AM 53.8°F12.1°C 51.5°F10.8°C 92% 1.0 mph WSW1.6 kmh WSW 4.0 mph6.4 kmh 29.83 in1010.2 mb 0.00 in0.0 mm 0.00 in/hr0.0 mm/hr 0.06 in1.5 mm
02:00 AM 53.8°F12.1°C 51.5°F10.8°C 92% 2.9 mph WSW4.7 kmh WSW 5.0 mph8.0 kmh 29.83 in1010.2 mb 0.00 in0.0 mm 0.00 in/hr0.0 mm/hr 0.06 in1.5 mm
01:50 AM 53.8°F12.1°C 51.5°F10.8°C 92% 4.3 mph SW6.9 kmh SW 6.0 mph9.7 kmh 29.84 in1010.5 mb 0.00 in0.0 mm 0.00 in/hr0.0 mm/hr 0.06 in1.5 mm
01:40 AM 53.9°F12.2°C 51.6°F10.9°C 92% 2.1 mph SW3.4 kmh SW 6.0 mph9.7 kmh 29.84 in1010.5 mb 0.02 in0.5 mm 0.12 in/hr3.0 mm/hr 0.06 in1.5 mm
01:30 AM 53.9°F12.2°C 51.6°F10.9°C 92% 2.7 mph WSW4.3 kmh WSW 11.0 mph17.7 kmh 29.84 in1010.5 mb 0.01 in0.3 mm 0.06 in/hr1.5 mm/hr 0.06 in1.5 mm
01:20 AM 53.9°F12.2°C 51.3°F10.7°C 91% 4.1 mph SW6.6 kmh SW 8.0 mph12.9 kmh 29.84 in1010.5 mb 0.01 in0.3 mm 0.06 in/hr1.5 mm/hr 0.05 in1.3 mm
01:10 AM 54.0°F12.2°C 51.4°F10.8°C 91% 2.1 mph SW3.4 kmh SW 9.0 mph14.5 kmh 29.84 in1010.5 mb 0.01 in0.3 mm 0.06 in/hr1.5 mm/hr 0.04 in1.0 mm
01:00 AM 54.1°F12.3°C 51.5°F10.8°C 91% 1.5 mph SW2.4 kmh SW 5.0 mph8.0 kmh 29.84 in1010.5 mb 0.01 in0.3 mm 0.01 in/hr0.3 mm/hr 0.04 in1.0 mm
12:50 AM 54.1°F12.3°C 51.2°F10.7°C 90% 3.7 mph SW6.0 kmh SW 7.0 mph11.3 kmh 29.84 in1010.5 mb 0.01 in0.3 mm 0.06 in/hr1.5 mm/hr 0.03 in0.8 mm
12:40 AM 54.1°F12.3°C 51.2°F10.7°C 90% 2.1 mph SW3.4 kmh SW 3.0 mph4.8 kmh 29.85 in1010.8 mb 0.00 in0.0 mm 0.00 in/hr0.0 mm/hr 0.02 in0.5 mm
12:30 AM 54.2°F12.3°C 51.3°F10.7°C 90% 4.3 mph WSW6.9 kmh WSW 6.0 mph9.7 kmh 29.85 in1010.8 mb 0.00 in0.0 mm 0.00 in/hr0.0 mm/hr 0.02 in0.5 mm
12:20 AM 54.4°F12.4°C 51.2°F10.7°C 89% 4.9 mph SW7.9 kmh SW 7.0 mph11.3 kmh 29.85 in1010.8 mb 0.01 in0.3 mm 0.06 in/hr1.5 mm/hr 0.02 in0.5 mm
12:10 AM 54.5°F12.5°C 51.3°F10.7°C 89% 3.0 mph SW4.8 kmh SW 8.0 mph12.9 kmh 29.85 in1010.8 mb 0.02 in0.5 mm 0.12 in/hr3.0 mm/hr 0.02 in0.5 mm
12:00 AM 54.5°F12.5°C 51.0°F10.6°C 88% 4.7 mph SW7.6 kmh SW 6.0 mph9.7 kmh 29.86 in1011.2 mb 0.00 in0.0 mm 0.00 in/hr0.0 mm/hr 0.00 in0.0 mm